createdAt,value
2022-08-05T00:00:35.198Z,24.65
2022-08-05T00:03:07.950Z,24.64
2022-08-05T00:06:05.341Z,24.65
2022-08-05T00:08:19.787Z,24.61
2022-08-05T00:11:00.788Z,24.62
2022-08-05T00:13:38.383Z,24.59
2022-08-05T00:16:01.246Z,24.63
2022-08-05T00:18:22.865Z,24.55
2022-08-05T00:20:44.358Z,24.53
2022-08-05T00:23:12.775Z,24.53
2022-08-05T00:25:46.166Z,24.43
2022-08-05T00:28:07.811Z,24.33
2022-08-05T00:30:34.172Z,24.32
2022-08-05T00:32:55.608Z,24.30
2022-08-05T00:35:20.297Z,24.27
2022-08-05T00:37:53.022Z,24.27
2022-08-05T00:40:17.933Z,24.21
2022-08-05T00:42:50.037Z,24.18
2022-08-05T00:45:13.559Z,24.16
2022-08-05T00:47:53.488Z,24.16
2022-08-05T00:50:17.767Z,24.20
2022-08-05T00:52:39.238Z,24.16
2022-08-05T00:55:00.796Z,24.15
2022-08-05T00:57:22.596Z,24.12
2022-08-05T00:59:48.609Z,24.01
2022-08-05T01:02:10.143Z,24.00
2022-08-05T01:04:32.935Z,23.97
2022-08-05T01:06:55.074Z,23.93
2022-08-05T01:09:17.411Z,23.96
2022-08-05T01:11:42.057Z,23.94
2022-08-05T01:14:10.039Z,23.98
2022-08-05T01:16:39.032Z,23.90
2022-08-05T01:19:12.182Z,23.78
2022-08-05T01:21:38.684Z,23.64
2022-08-05T01:24:14.209Z,23.63
2022-08-05T01:27:20.441Z,23.55
2022-08-05T01:29:49.098Z,23.50
2022-08-05T01:32:18.920Z,23.41
2022-08-05T01:35:13.093Z,23.39
2022-08-05T01:37:57.857Z,23.29
2022-08-05T01:40:29.020Z,23.25
2022-08-05T01:42:52.852Z,23.28
2022-08-05T01:45:16.659Z,23.37
2022-08-05T01:47:43.146Z,23.40
2022-08-05T01:50:08.075Z,23.36
2022-08-05T01:52:38.660Z,23.30
2022-08-05T01:55:04.726Z,23.20
2022-08-05T01:58:18.883Z,23.26
2022-08-05T02:00:14.142Z,23.07
2022-08-05T02:02:51.156Z,22.98
2022-08-05T02:05:16.276Z,22.96
2022-08-05T02:07:39.161Z,23.06
2022-08-05T02:10:01.234Z,23.29
2022-08-05T02:12:33.290Z,23.33
2022-08-05T02:15:12.211Z,23.05
2022-08-05T02:18:30.790Z,23.06
2022-08-05T02:20:25.022Z,23.10
2022-08-05T02:22:55.936Z,23.19
2022-08-05T02:25:19.505Z,23.29
2022-08-05T02:27:59.461Z,23.38
2022-08-05T02:30:23.651Z,23.54
2022-08-05T02:32:52.586Z,23.59
2022-08-05T02:35:27.671Z,23.62
2022-08-05T02:37:53.974Z,23.62
2022-08-05T02:40:17.114Z,23.39
2022-08-05T02:42:39.388Z,23.37
2022-08-05T02:45:02.564Z,23.25
2022-08-05T02:48:07.091Z,23.15
2022-08-05T02:50:29.355Z,23.04
2022-08-05T02:52:53.107Z,22.97
2022-08-05T02:55:17.697Z,22.98
2022-08-05T02:58:11.119Z,22.97
2022-08-05T03:00:37.250Z,22.96
2022-08-05T03:03:01.771Z,22.97
2022-08-05T03:06:57.244Z,22.97
2022-08-05T03:08:11.501Z,22.94
2022-08-05T03:10:33.266Z,23.07
2022-08-05T03:12:55.153Z,23.10
2022-08-05T03:15:16.638Z,23.12
2022-08-05T03:17:41.545Z,23.15
2022-08-05T03:20:05.357Z,23.16
2022-08-05T03:22:32.224Z,23.15
2022-08-05T03:24:55.746Z,23.12
2022-08-05T03:27:24.191Z,23.14
2022-08-05T03:30:08.099Z,23.33
2022-08-05T03:32:31.452Z,23.22
2022-08-05T03:34:53.546Z,23.29
2022-08-05T03:37:15.586Z,23.25
2022-08-05T03:39:57.666Z,23.19
2022-08-05T03:42:18.914Z,23.40
2022-08-05T03:44:40.362Z,23.37
2022-08-05T03:47:01.840Z,23.10
2022-08-05T03:49:31.009Z,22.89
2022-08-05T03:52:39.017Z,22.92
2022-08-05T03:55:51.766Z,22.84
2022-08-05T03:57:44.766Z,22.82
2022-08-05T04:00:16.297Z,22.95
2022-08-05T04:02:57.697Z,22.86
2022-08-05T04:05:19.941Z,22.81
2022-08-05T04:07:57.063Z,22.79
2022-08-05T04:10:20.723Z,22.82
2022-08-05T04:15:02.915Z,23.02
2022-08-05T04:17:25.911Z,23.28
2022-08-05T04:20:07.504Z,23.19
2022-08-05T04:22:32.288Z,22.88
2022-08-05T04:24:56.287Z,22.90
2022-08-05T04:27:17.835Z,22.83
2022-08-05T04:29:41.566Z,22.58
2022-08-05T04:32:03.904Z,22.87
2022-08-05T04:34:32.284Z,22.90
2022-08-05T04:36:55.660Z,22.79
2022-08-05T04:39:18.852Z,22.55
2022-08-05T04:41:40.619Z,22.58
2022-08-05T04:44:09.532Z,22.52
2022-08-05T04:46:31.433Z,22.33
2022-08-05T04:48:52.907Z,22.37
2022-08-05T04:51:14.435Z,22.36
2022-08-05T04:53:35.899Z,22.46
2022-08-05T04:56:32.931Z,22.41
2022-08-05T04:58:38.802Z,22.46
2022-08-05T05:01:00.330Z,22.50
2022-08-05T05:03:22.154Z,22.55
2022-08-05T05:06:35.885Z,22.53
2022-08-05T05:08:30.090Z,22.66
2022-08-05T05:10:56.353Z,22.72
2022-08-05T05:13:18.367Z,22.64
2022-08-05T05:15:56.632Z,22.73
2022-08-05T05:18:31.135Z,22.52
2022-08-05T05:20:55.509Z,22.72
2022-08-05T05:23:19.947Z,22.58
2022-08-05T05:25:42.594Z,22.47
2022-08-05T05:28:04.349Z,22.47
2022-08-05T05:30:29.624Z,22.66
2022-08-05T05:32:53.422Z,22.89
2022-08-05T05:35:19.911Z,23.01
2022-08-05T05:38:00.088Z,22.77
2022-08-05T05:40:26.019Z,22.74
2022-08-05T05:42:48.283Z,22.59
2022-08-05T05:45:11.141Z,22.65
2022-08-05T05:48:05.354Z,22.75
2022-08-05T05:50:19.815Z,22.70
2022-08-05T05:52:42.365Z,22.78
2022-08-05T05:55:13.602Z,22.75
2022-08-05T05:57:42.744Z,22.78
2022-08-05T06:00:19.854Z,22.94
2022-08-05T06:02:41.629Z,22.85
2022-08-05T06:05:03.682Z,22.88
2022-08-05T06:07:42.110Z,22.97
2022-08-05T06:10:10.193Z,22.93
2022-08-05T06:12:32.389Z,22.93
2022-08-05T06:14:54.890Z,22.99
2022-08-05T06:17:22.573Z,23.05
2022-08-05T06:19:56.566Z,23.05
2022-08-05T06:22:25.962Z,23.10
2022-08-05T06:24:48.407Z,23.09
2022-08-05T06:28:09.218Z,23.15
2022-08-05T06:30:04.615Z,23.18
2022-08-05T06:32:33.470Z,23.32
2022-08-05T06:34:56.398Z,23.32
2022-08-05T06:37:18.690Z,23.52
2022-08-05T06:40:00.151Z,23.40
2022-08-05T06:42:24.189Z,23.36
2022-08-05T06:44:46.837Z,23.27
2022-08-05T06:47:30.041Z,23.16
2022-08-05T06:50:01.096Z,23.17
2022-08-05T06:52:37.789Z,23.20
2022-08-05T06:54:59.833Z,23.28
2022-08-05T06:57:57.496Z,23.45
2022-08-05T07:00:05.941Z,23.61
2022-08-05T07:02:31.327Z,23.82
2022-08-05T07:04:52.795Z,24.13
2022-08-05T07:07:15.174Z,24.11
2022-08-05T07:09:37.446Z,24.16
2022-08-05T07:12:02.190Z,24.23
2022-08-05T07:14:42.079Z,24.46
2022-08-05T07:17:59.467Z,24.62
2022-08-05T07:22:30.043Z,25.14
2022-08-05T07:24:52.653Z,25.24
2022-08-05T07:27:15.263Z,25.36
2022-08-05T07:30:28.453Z,25.63
2022-08-05T07:32:18.304Z,25.90
2022-08-05T07:34:47.832Z,26.12
2022-08-05T07:37:19.615Z,26.35
2022-08-05T07:40:04.063Z,26.61
2022-08-05T07:42:33.598Z,26.52
2022-08-05T07:44:56.047Z,26.64
2022-08-05T07:47:17.968Z,26.73
2022-08-05T07:49:43.588Z,26.79
2022-08-05T07:52:16.154Z,26.92
2022-08-05T07:54:38.629Z,27.27
2022-08-05T07:57:17.765Z,27.22
2022-08-05T07:59:46.966Z,27.47
2022-08-05T08:02:15.873Z,27.64
2022-08-05T08:04:38.976Z,27.81
2022-08-05T08:07:01.036Z,28.14
2022-08-05T08:09:29.062Z,28.74
2022-08-05T08:11:59.012Z,28.77
2022-08-05T08:14:23.474Z,28.95
2022-08-05T08:16:50.927Z,29.15
2022-08-05T08:19:18.723Z,29.12
2022-08-05T08:21:54.489Z,29.20
2022-08-05T08:24:15.969Z,29.38
2022-08-05T08:26:37.486Z,29.57
2022-08-05T08:29:29.488Z,29.80
2022-08-05T08:31:44.447Z,29.67
2022-08-05T08:34:07.677Z,29.65
2022-08-05T08:36:52.457Z,29.69
2022-08-05T08:39:15.025Z,29.71
2022-08-05T08:41:51.683Z,29.68
2022-08-05T08:45:22.799Z,29.47
2022-08-05T08:47:47.014Z,29.03
2022-08-05T08:50:14.162Z,29.17
2022-08-05T08:52:33.857Z,28.93
2022-08-05T08:54:55.713Z,29.20
2022-08-05T08:57:19.645Z,29.14
2022-08-05T08:59:47.452Z,28.92
2022-08-05T09:02:11.338Z,28.77
2022-08-05T09:04:58.224Z,28.63
2022-08-05T09:07:28.816Z,28.58
2022-08-05T09:09:50.904Z,28.32
2022-08-05T09:12:20.023Z,28.31
2022-08-05T09:14:56.989Z,28.44
2022-08-05T09:17:42.499Z,28.26
2022-08-05T09:20:05.716Z,28.53
2022-08-05T09:22:31.830Z,28.39
2022-08-05T09:25:13.528Z,28.49
2022-08-05T09:28:04.537Z,28.35
2022-08-05T09:30:25.990Z,28.30
2022-08-05T09:32:47.884Z,28.32
2022-08-05T09:35:12.663Z,28.22
2022-08-05T09:38:16.934Z,27.96
2022-08-05T09:40:41.190Z,27.82
2022-08-05T09:43:41.139Z,27.97
2022-08-05T09:46:08.937Z,28.00
2022-08-05T09:48:34.778Z,28.02
2022-08-05T09:51:14.987Z,28.11
2022-08-05T09:53:58.940Z,28.16
2022-08-05T09:56:26.856Z,28.25
2022-08-05T09:58:58.478Z,28.33
2022-08-05T10:01:22.558Z,28.47
2022-08-05T10:04:00.326Z,28.37
2022-08-05T10:06:21.997Z,28.42
2022-08-05T10:08:43.591Z,28.69
2022-08-05T10:11:16.400Z,28.79
2022-08-05T10:13:47.222Z,28.73
2022-08-05T10:16:33.824Z,28.56
2022-08-05T10:18:55.887Z,28.53
2022-08-05T10:21:18.639Z,28.46
2022-08-05T10:23:58.974Z,28.36
2022-08-05T10:26:24.448Z,28.36
2022-08-05T10:28:56.394Z,28.23
2022-08-05T10:32:54.991Z,28.19
2022-08-05T10:33:59.862Z,28.20
2022-08-05T10:36:23.533Z,28.15
2022-08-05T10:38:49.559Z,28.04
2022-08-05T10:41:46.410Z,28.07
2022-08-05T10:44:13.669Z,28.05
2022-08-05T10:46:54.036Z,27.96
2022-08-05T10:49:17.106Z,27.96
2022-08-05T10:51:53.107Z,28.23
2022-08-05T10:54:28.477Z,28.55
2022-08-05T10:56:55.897Z,28.68
2022-08-05T11:00:04.122Z,28.64
2022-08-05T11:02:38.088Z,28.90
2022-08-05T11:04:55.954Z,29.27
2022-08-05T11:07:18.710Z,29.33
2022-08-05T11:10:09.614Z,29.60
2022-08-05T11:12:45.461Z,29.66
2022-08-05T11:15:59.969Z,29.83
2022-08-05T11:18:27.289Z,30.12
2022-08-05T11:20:53.202Z,30.08
2022-08-05T11:24:14.662Z,30.12
2022-08-05T11:26:49.650Z,30.11
2022-08-05T11:29:35.908Z,30.05
2022-08-05T11:32:26.864Z,30.07
2022-08-05T11:34:54.029Z,29.96
2022-08-05T11:38:26.653Z,29.90
2022-08-05T11:41:00.392Z,29.67
2022-08-05T11:44:00.918Z,29.78
2022-08-05T11:46:27.171Z,29.77
2022-08-05T11:48:46.597Z,29.78
2022-08-05T11:51:14.563Z,29.89
2022-08-05T11:53:56.876Z,29.85
2022-08-05T11:56:18.396Z,29.99
2022-08-05T11:58:59.840Z,29.92
2022-08-05T12:01:23.239Z,30.03
2022-08-05T12:03:57.233Z,30.14
2022-08-05T12:06:22.329Z,30.25
2022-08-05T12:08:55.839Z,30.20
2022-08-05T12:11:28.346Z,30.05
2022-08-05T12:14:05.983Z,30.08
2022-08-05T12:16:38.527Z,30.08
2022-08-05T12:19:00.405Z,30.18
2022-08-05T12:21:42.132Z,30.13
2022-08-05T12:24:10.577Z,30.13
2022-08-05T12:26:33.015Z,30.02
2022-08-05T12:28:54.526Z,30.20
2022-08-05T12:31:23.690Z,30.46
2022-08-05T12:33:57.296Z,30.58
2022-08-05T12:36:19.920Z,30.64
2022-08-05T12:38:41.819Z,30.70
2022-08-05T12:41:03.602Z,30.66
2022-08-05T12:43:25.134Z,30.70
2022-08-05T12:45:55.478Z,30.75
2022-08-05T12:48:27.387Z,30.65
2022-08-05T12:52:11.074Z,30.46
2022-08-05T12:53:55.573Z,30.41
2022-08-05T12:56:34.024Z,30.37
2022-08-05T12:59:14.146Z,30.42
2022-08-05T13:02:01.517Z,30.36
2022-08-05T13:04:52.607Z,30.32
2022-08-05T13:07:54.698Z,30.49
2022-08-05T13:10:11.903Z,30.66
2022-08-05T13:12:50.789Z,30.57
2022-08-05T13:15:24.473Z,30.53
2022-08-05T13:17:59.197Z,30.44
2022-08-05T13:20:24.636Z,30.37
2022-08-05T13:22:50.233Z,30.11
2022-08-05T13:25:18.811Z,30.03
2022-08-05T13:27:42.626Z,29.64
2022-08-05T13:30:33.802Z,29.73
2022-08-05T13:32:50.383Z,29.96
2022-08-05T13:35:12.612Z,30.05
2022-08-05T13:37:35.966Z,30.43
2022-08-05T13:40:16.839Z,30.42
2022-08-05T13:42:41.850Z,30.23
2022-08-05T13:45:03.952Z,30.04
2022-08-05T13:47:35.530Z,29.78
2022-08-05T13:49:57.900Z,29.53
2022-08-05T13:52:29.740Z,29.48
2022-08-05T13:54:54.180Z,29.52
2022-08-05T13:57:16.997Z,29.35
2022-08-05T13:59:57.585Z,29.25
2022-08-05T14:02:26.663Z,29.07
2022-08-05T14:05:11.606Z,28.85
2022-08-05T14:08:01.223Z,28.74
2022-08-05T14:10:28.101Z,28.57
2022-08-05T14:12:50.826Z,28.46
2022-08-05T14:16:07.634Z,28.38
2022-08-05T14:17:59.741Z,28.43
2022-08-05T14:20:27.336Z,28.53
2022-08-05T14:22:50.330Z,28.58
2022-08-05T14:25:21.499Z,29.08
2022-08-05T14:27:47.297Z,29.60
2022-08-05T14:30:19.996Z,30.21
2022-08-05T14:32:43.032Z,30.77
2022-08-05T14:35:06.269Z,30.83
2022-08-05T14:37:44.764Z,30.95
2022-08-05T14:40:10.402Z,30.24
2022-08-05T14:42:36.368Z,29.92
2022-08-05T14:44:59.498Z,29.47
2022-08-05T14:48:03.701Z,28.70
2022-08-05T14:50:15.652Z,28.35
2022-08-05T14:52:52.365Z,27.97
2022-08-05T14:55:15.357Z,27.59
2022-08-05T14:57:54.663Z,27.14
2022-08-05T15:00:19.957Z,26.50
2022-08-05T15:02:41.613Z,26.07
2022-08-05T15:05:08.749Z,25.83
2022-08-05T15:08:08.881Z,25.73
2022-08-05T15:10:16.628Z,25.91
2022-08-05T15:12:59.416Z,25.59
2022-08-05T15:15:55.933Z,25.37
2022-08-05T15:18:03.882Z,25.10
2022-08-05T15:20:27.458Z,24.77
2022-08-05T15:22:52.239Z,24.46
2022-08-05T15:25:16.148Z,24.37
2022-08-05T15:27:52.460Z,24.14
2022-08-05T15:30:16.475Z,24.01
2022-08-05T15:32:38.153Z,23.89
2022-08-05T15:35:04.097Z,23.79
2022-08-05T15:38:32.282Z,23.65
2022-08-05T15:40:59.097Z,23.65
2022-08-05T15:43:01.569Z,23.52
2022-08-05T15:45:37.816Z,23.37
2022-08-05T15:48:03.499Z,23.12
2022-08-05T15:50:25.187Z,23.03
2022-08-05T15:52:53.128Z,22.94
2022-08-05T15:55:17.597Z,22.91
2022-08-05T15:57:41.572Z,22.89
2022-08-05T16:00:08.231Z,22.80
2022-08-05T16:02:29.926Z,22.77
2022-08-05T16:04:52.824Z,22.86
2022-08-05T16:07:14.943Z,22.96
2022-08-05T16:09:36.568Z,23.06
2022-08-05T16:11:58.067Z,23.16
2022-08-05T16:14:19.837Z,23.23
2022-08-05T16:16:41.647Z,23.28
2022-08-05T16:19:03.658Z,23.35
2022-08-05T16:21:59.965Z,23.27
2022-08-05T16:24:07.560Z,23.36
2022-08-05T16:26:34.482Z,23.51
2022-08-05T16:28:56.518Z,23.52
2022-08-05T16:31:18.012Z,23.62
2022-08-05T16:33:41.582Z,23.45
2022-08-05T16:36:05.109Z,23.25
2022-08-05T16:38:28.166Z,23.19
2022-08-05T16:40:55.515Z,23.17
2022-08-05T16:43:23.774Z,23.23
2022-08-05T16:46:04.677Z,23.13
2022-08-05T16:48:33.985Z,23.14
2022-08-05T16:50:59.200Z,22.99
2022-08-05T16:53:31.922Z,22.87
2022-08-05T16:55:54.125Z,22.88
2022-08-05T16:58:19.930Z,22.87
2022-08-05T17:00:41.617Z,22.72
2022-08-05T17:03:15.280Z,22.73
2022-08-05T17:05:41.899Z,22.66
2022-08-05T17:08:03.474Z,22.61
2022-08-05T17:10:26.445Z,22.56
2022-08-05T17:12:52.426Z,22.47
2022-08-05T17:15:15.525Z,22.49
2022-08-05T17:17:42.088Z,22.48
2022-08-05T17:20:07.495Z,22.44
2022-08-05T17:22:29.481Z,22.35
2022-08-05T17:24:57.702Z,22.33
2022-08-05T17:27:20.077Z,22.38
2022-08-05T17:29:41.830Z,22.39
2022-08-05T17:32:03.645Z,22.19
2022-08-05T17:34:30.008Z,22.22
2022-08-05T17:36:54.034Z,22.20
2022-08-05T17:39:24.312Z,22.21
2022-08-05T17:42:19.729Z,22.27
2022-08-05T17:44:36.478Z,22.20
2022-08-05T17:46:57.944Z,22.22
2022-08-05T17:49:19.510Z,22.09
2022-08-05T17:51:46.060Z,21.99
2022-08-05T17:54:11.551Z,22.08
2022-08-05T17:56:35.798Z,22.02
2022-08-05T17:58:58.255Z,22.03
2022-08-05T18:01:19.811Z,22.10
2022-08-05T18:03:57.814Z,22.23
2022-08-05T18:06:29.514Z,22.23
2022-08-05T18:08:53.147Z,22.37
2022-08-05T18:11:23.952Z,22.44
2022-08-05T18:13:54.355Z,22.63
2022-08-05T18:16:18.075Z,22.79
2022-08-05T18:18:42.131Z,22.72
2022-08-05T18:21:13.266Z,22.80
2022-08-05T18:23:47.047Z,22.90
2022-08-05T18:26:08.767Z,22.86
2022-08-05T18:28:30.302Z,22.99
2022-08-05T18:30:52.737Z,23.10
2022-08-05T18:33:14.925Z,23.03
2022-08-05T18:36:00.640Z,22.96
2022-08-05T18:38:25.907Z,22.81
2022-08-05T18:41:57.001Z,22.73
2022-08-05T18:43:31.530Z,22.72
2022-08-05T18:46:00.419Z,22.62
2022-08-05T18:48:31.293Z,22.53
2022-08-05T18:52:04.583Z,22.33
2022-08-05T18:53:54.660Z,22.30
2022-08-05T18:56:16.200Z,22.20
2022-08-05T18:58:37.702Z,22.12
2022-08-05T19:01:04.630Z,22.00
2022-08-05T19:03:53.461Z,21.96
2022-08-05T19:06:18.753Z,21.88
2022-08-05T19:08:44.029Z,21.85
2022-08-05T19:11:09.888Z,21.68
2022-08-05T19:13:35.589Z,21.56
2022-08-05T19:16:03.626Z,21.74
2022-08-05T19:18:25.557Z,21.56
2022-08-05T19:20:48.281Z,21.42
2022-08-05T19:23:22.714Z,21.27
2022-08-05T19:25:51.201Z,21.25
2022-08-05T19:28:23.728Z,21.21
2022-08-05T19:30:49.489Z,21.18
2022-08-05T19:33:12.942Z,21.11
2022-08-05T19:35:56.006Z,21.05
2022-08-05T19:38:26.541Z,20.95
2022-08-05T19:40:48.376Z,20.96
2022-08-05T19:44:03.944Z,20.94
2022-08-05T19:45:56.185Z,20.90
2022-08-05T19:48:17.804Z,20.82
2022-08-05T19:50:41.234Z,20.83
2022-08-05T19:53:09.276Z,20.86
2022-08-05T19:56:14.954Z,20.80
2022-08-05T19:58:28.817Z,20.74
2022-08-05T20:00:52.708Z,20.73
2022-08-05T20:03:14.320Z,20.77
2022-08-05T20:05:49.830Z,20.77
2022-08-05T20:08:12.140Z,20.70
2022-08-05T20:10:35.749Z,20.69
2022-08-05T20:12:58.478Z,20.63
2022-08-05T20:15:48.876Z,20.60
2022-08-05T20:18:10.738Z,20.54
2022-08-05T20:20:47.362Z,20.50
2022-08-05T20:23:08.842Z,20.46
2022-08-05T20:25:40.128Z,20.46
2022-08-05T20:28:01.765Z,20.38
2022-08-05T20:30:23.848Z,20.29
2022-08-05T20:32:47.965Z,20.22
2022-08-05T20:35:09.620Z,20.17
2022-08-05T20:38:06.255Z,20.17
2022-08-05T20:40:15.213Z,20.07
2022-08-05T20:42:39.760Z,19.99
2022-08-05T20:45:06.283Z,19.98
2022-08-05T20:47:31.737Z,19.93
2022-08-05T20:49:54.019Z,19.75
2022-08-05T20:52:16.963Z,19.68
2022-08-05T20:54:42.847Z,19.64
2022-08-05T20:57:42.037Z,19.58
2022-08-05T21:00:19.756Z,19.56
2022-08-05T21:02:51.453Z,19.50
2022-08-05T21:05:13.781Z,19.47
2022-08-05T21:07:50.773Z,19.37
2022-08-05T21:10:14.004Z,19.38
2022-08-05T21:12:36.570Z,19.19
2022-08-05T21:15:00.645Z,19.04
2022-08-05T21:17:22.174Z,18.86
2022-08-05T21:19:47.948Z,18.84
2022-08-05T21:22:12.146Z,18.76
2022-08-05T21:24:35.896Z,18.71
2022-08-05T21:26:58.342Z,18.66
2022-08-05T21:29:20.315Z,18.63
2022-08-05T21:31:47.853Z,18.63
2022-08-05T21:34:10.439Z,18.65
2022-08-05T21:36:32.899Z,18.53
2022-08-05T21:38:54.832Z,18.34
2022-08-05T21:41:16.572Z,18.24
2022-08-05T21:43:42.398Z,18.13
2022-08-05T21:46:12.604Z,18.11
2022-08-05T21:48:35.413Z,18.16
2022-08-05T21:50:57.570Z,18.05
2022-08-05T21:53:19.040Z,18.12
2022-08-05T21:56:01.136Z,17.93
2022-08-05T21:58:24.953Z,17.79
2022-08-05T22:00:53.775Z,17.74
2022-08-05T22:03:15.300Z,17.69
2022-08-05T22:05:48.406Z,17.65
2022-08-05T22:08:22.159Z,17.59
2022-08-05T22:10:45.851Z,17.62
2022-08-05T22:14:06.121Z,17.60
2022-08-05T22:16:00.445Z,17.51
2022-08-05T22:18:26.333Z,17.53
2022-08-05T22:20:51.575Z,17.51
2022-08-05T22:24:01.815Z,17.40
2022-08-05T22:26:32.703Z,17.44
2022-08-05T22:28:55.123Z,17.37
2022-08-05T22:31:16.596Z,17.31
2022-08-05T22:33:58.606Z,17.45
2022-08-05T22:36:19.593Z,17.46
2022-08-05T22:38:48.202Z,17.36
2022-08-05T22:41:10.836Z,17.29
2022-08-05T22:43:37.504Z,17.30
2022-08-05T22:45:59.552Z,17.27
2022-08-05T22:48:22.185Z,17.29
2022-08-05T22:50:56.228Z,17.32
2022-08-05T22:53:18.136Z,17.29
2022-08-05T22:55:56.953Z,17.32
2022-08-05T22:58:28.249Z,17.36
2022-08-05T23:00:50.361Z,17.34
2022-08-05T23:03:13.514Z,17.26
2022-08-05T23:05:36.079Z,17.28
2022-08-05T23:07:57.816Z,17.23
2022-08-05T23:10:23.930Z,17.16
2022-08-05T23:12:45.779Z,17.11
2022-08-05T23:15:08.919Z,17.09
2022-08-05T23:17:37.151Z,17.25
2022-08-05T23:20:02.421Z,17.09
2022-08-05T23:22:27.508Z,17.14
2022-08-05T23:24:51.216Z,17.02
2022-08-05T23:27:12.912Z,17.03
2022-08-05T23:29:34.888Z,17.03
2022-08-05T23:31:58.082Z,17.07
2022-08-05T23:34:24.484Z,17.08
2022-08-05T23:36:46.639Z,17.01
2022-08-05T23:39:08.327Z,16.94
2022-08-05T23:41:29.949Z,16.95
2022-08-05T23:44:05.623Z,16.93
2022-08-05T23:46:30.091Z,16.99
2022-08-05T23:48:59.666Z,16.98
2022-08-05T23:51:23.295Z,16.93
2022-08-05T23:53:46.455Z,16.88
2022-08-05T23:56:08.649Z,16.90
2022-08-05T23:58:32.130Z,16.96
